sensor_id;sensor_type;location;lat;lon;timestamp;temperature;humidity
12329;DHT22;6230;52.390;10.256;2022-08-05T00:02:01;28.10;57.20
12329;DHT22;6230;52.390;10.256;2022-08-05T00:04:27;28.10;57.20
12329;DHT22;6230;52.390;10.256;2022-08-05T00:06:52;28.00;57.20
12329;DHT22;6230;52.390;10.256;2022-08-05T00:09:18;28.00;57.20
12329;DHT22;6230;52.390;10.256;2022-08-05T00:11:44;27.90;57.30
12329;DHT22;6230;52.390;10.256;2022-08-05T00:14:09;27.80;57.50
12329;DHT22;6230;52.390;10.256;2022-08-05T00:16:35;27.80;57.60
12329;DHT22;6230;52.390;10.256;2022-08-05T00:19:00;27.80;57.70
12329;DHT22;6230;52.390;10.256;2022-08-05T00:21:26;27.70;57.60
12329;DHT22;6230;52.390;10.256;2022-08-05T00:23:51;27.70;57.70
12329;DHT22;6230;52.390;10.256;2022-08-05T00:26:17;27.70;57.80
12329;DHT22;6230;52.390;10.256;2022-08-05T00:28:44;27.60;57.80
12329;DHT22;6230;52.390;10.256;2022-08-05T00:31:09;27.60;57.80
12329;DHT22;6230;52.390;10.256;2022-08-05T00:33:35;27.50;57.80
12329;DHT22;6230;52.390;10.256;2022-08-05T00:36:01;27.50;57.90
12329;DHT22;6230;52.390;10.256;2022-08-05T00:38:26;27.40;57.90
12329;DHT22;6230;52.390;10.256;2022-08-05T00:40:54;27.30;57.80
12329;DHT22;6230;52.390;10.256;2022-08-05T00:43:20;27.20;58.00
12329;DHT22;6230;52.390;10.256;2022-08-05T00:45:46;27.10;58.00
12329;DHT22;6230;52.390;10.256;2022-08-05T00:48:22;27.10;58.20
12329;DHT22;6230;52.390;10.256;2022-08-05T00:50:50;27.10;58.30
12329;DHT22;6230;52.390;10.256;2022-08-05T00:53:18;27.10;58.20
12329;DHT22;6230;52.390;10.256;2022-08-05T00:55:44;27.10;58.40
12329;DHT22;6230;52.390;10.256;2022-08-05T00:58:12;27.10;58.40
12329;DHT22;6230;52.390;10.256;2022-08-05T01:00:39;27.10;58.40
12329;DHT22;6230;52.390;10.256;2022-08-05T01:03:05;27.10;58.20
12329;DHT22;6230;52.390;10.256;2022-08-05T01:05:30;27.00;58.20
12329;DHT22;6230;52.390;10.256;2022-08-05T01:07:56;27.00;58.20
12329;DHT22;6230;52.390;10.256;2022-08-05T01:10:28;27.00;58.20
12329;DHT22;6230;52.390;10.256;2022-08-05T01:13:03;26.90;58.80
12329;DHT22;6230;52.390;10.256;2022-08-05T01:15:34;26.90;58.40
12329;DHT22;6230;52.390;10.256;2022-08-05T01:18:05;26.90;58.40
12329;DHT22;6230;52.390;10.256;2022-08-05T01:20:44;26.90;58.30
12329;DHT22;6230;52.390;10.256;2022-08-05T01:28:36;26.60;58.00
12329;DHT22;6230;52.390;10.256;2022-08-05T01:33:55;26.40;58.40
12329;DHT22;6230;52.390;10.256;2022-08-05T01:36:27;26.30;58.40
12329;DHT22;6230;52.390;10.256;2022-08-05T01:38:54;26.20;58.50
12329;DHT22;6230;52.390;10.256;2022-08-05T01:41:21;26.10;58.50
12329;DHT22;6230;52.390;10.256;2022-08-05T01:43:49;26.10;58.70
12329;DHT22;6230;52.390;10.256;2022-08-05T01:46:15;26.00;58.70
12329;DHT22;6230;52.390;10.256;2022-08-05T01:48:43;26.00;58.90
12329;DHT22;6230;52.390;10.256;2022-08-05T01:51:09;26.00;58.90
12329;DHT22;6230;52.390;10.256;2022-08-05T01:53:35;25.90;58.90
12329;DHT22;6230;52.390;10.256;2022-08-05T01:56:02;25.90;58.90
12329;DHT22;6230;52.390;10.256;2022-08-05T01:58:29;25.90;58.90
12329;DHT22;6230;52.390;10.256;2022-08-05T02:00:57;26.00;59.00
12329;DHT22;6230;52.390;10.256;2022-08-05T02:03:32;26.00;59.00
12329;DHT22;6230;52.390;10.256;2022-08-05T02:06:00;26.00;59.00
12329;DHT22;6230;52.390;10.256;2022-08-05T02:08:26;26.00;59.10
12329;DHT22;6230;52.390;10.256;2022-08-05T02:10:55;26.00;59.00
12329;DHT22;6230;52.390;10.256;2022-08-05T02:13:27;26.00;59.20
12329;DHT22;6230;52.390;10.256;2022-08-05T02:16:18;26.00;59.10
12329;DHT22;6230;52.390;10.256;2022-08-05T02:19:07;26.00;59.10
12329;DHT22;6230;52.390;10.256;2022-08-05T02:21:39;26.00;59.00
12329;DHT22;6230;52.390;10.256;2022-08-05T02:24:08;26.00;59.00
12329;DHT22;6230;52.390;10.256;2022-08-05T02:26:40;26.00;59.20
12329;DHT22;6230;52.390;10.256;2022-08-05T02:29:11;26.00;59.20
12329;DHT22;6230;52.390;10.256;2022-08-05T02:31:39;26.00;59.00
12329;DHT22;6230;52.390;10.256;2022-08-05T02:34:09;26.00;59.00
12329;DHT22;6230;52.390;10.256;2022-08-05T02:36:43;26.00;59.10
12329;DHT22;6230;52.390;10.256;2022-08-05T02:39:11;26.00;59.10
12329;DHT22;6230;52.390;10.256;2022-08-05T02:41:38;26.00;58.90
12329;DHT22;6230;52.390;10.256;2022-08-05T02:44:09;26.10;59.00
12329;DHT22;6230;52.390;10.256;2022-08-05T02:46:38;26.10;59.10
12329;DHT22;6230;52.390;10.256;2022-08-05T02:49:04;26.10;59.00
12329;DHT22;6230;52.390;10.256;2022-08-05T02:51:31;26.10;59.00
12329;DHT22;6230;52.390;10.256;2022-08-05T02:53:58;26.20;58.90
12329;DHT22;6230;52.390;10.256;2022-08-05T02:56:25;26.20;58.90
12329;DHT22;6230;52.390;10.256;2022-08-05T02:58:52;26.20;58.80
12329;DHT22;6230;52.390;10.256;2022-08-05T03:01:24;26.20;58.80
12329;DHT22;6230;52.390;10.256;2022-08-05T03:03:53;26.20;58.90
12329;DHT22;6230;52.390;10.256;2022-08-05T03:06:20;26.20;58.90
12329;DHT22;6230;52.390;10.256;2022-08-05T03:08:46;26.20;59.00
12329;DHT22;6230;52.390;10.256;2022-08-05T03:11:20;26.10;59.00
12329;DHT22;6230;52.390;10.256;2022-08-05T03:13:46;26.00;59.10
12329;DHT22;6230;52.390;10.256;2022-08-05T03:16:12;25.80;59.80
12329;DHT22;6230;52.390;10.256;2022-08-05T03:18:38;25.70;59.40
12329;DHT22;6230;52.390;10.256;2022-08-05T03:21:04;25.70;59.70
12329;DHT22;6230;52.390;10.256;2022-08-05T03:23:31;25.60;59.90
12329;DHT22;6230;52.390;10.256;2022-08-05T03:25:56;25.60;60.20
12329;DHT22;6230;52.390;10.256;2022-08-05T03:28:22;25.70;60.30
12329;DHT22;6230;52.390;10.256;2022-08-05T03:30:48;25.60;60.30
12329;DHT22;6230;52.390;10.256;2022-08-05T03:33:15;25.50;60.60
12329;DHT22;6230;52.390;10.256;2022-08-05T03:35:41;25.30;60.80
12329;DHT22;6230;52.390;10.256;2022-08-05T03:38:12;25.20;61.10
12329;DHT22;6230;52.390;10.256;2022-08-05T03:40:39;25.20;61.60
12329;DHT22;6230;52.390;10.256;2022-08-05T03:43:05;25.10;61.70
12329;DHT22;6230;52.390;10.256;2022-08-05T03:45:31;25.00;61.70
12329;DHT22;6230;52.390;10.256;2022-08-05T03:47:56;25.00;62.00
12329;DHT22;6230;52.390;10.256;2022-08-05T03:50:22;25.00;61.90
12329;DHT22;6230;52.390;10.256;2022-08-05T03:53:04;25.00;61.90
12329;DHT22;6230;52.390;10.256;2022-08-05T03:55:34;24.90;62.30
12329;DHT22;6230;52.390;10.256;2022-08-05T03:58:03;24.80;62.20
12329;DHT22;6230;52.390;10.256;2022-08-05T04:00:30;24.80;62.30
12329;DHT22;6230;52.390;10.256;2022-08-05T04:03:01;24.80;62.50
12329;DHT22;6230;52.390;10.256;2022-08-05T04:05:30;24.90;62.60
12329;DHT22;6230;52.390;10.256;2022-08-05T04:07:56;24.80;62.50
12329;DHT22;6230;52.390;10.256;2022-08-05T04:10:22;24.90;62.50
12329;DHT22;6230;52.390;10.256;2022-08-05T04:12:48;25.00;62.60
12329;DHT22;6230;52.390;10.256;2022-08-05T04:15:14;25.00;62.40
12329;DHT22;6230;52.390;10.256;2022-08-05T04:17:39;25.00;62.50
12329;DHT22;6230;52.390;10.256;2022-08-05T04:20:05;25.00;62.40
12329;DHT22;6230;52.390;10.256;2022-08-05T04:22:31;25.00;62.50
12329;DHT22;6230;52.390;10.256;2022-08-05T04:24:56;25.00;62.40
12329;DHT22;6230;52.390;10.256;2022-08-05T04:27:22;25.00;62.40
12329;DHT22;6230;52.390;10.256;2022-08-05T04:29:48;25.00;62.30
12329;DHT22;6230;52.390;10.256;2022-08-05T04:32:13;25.00;62.30
12329;DHT22;6230;52.390;10.256;2022-08-05T04:34:39;25.10;62.30
12329;DHT22;6230;52.390;10.256;2022-08-05T04:37:04;25.20;62.20
12329;DHT22;6230;52.390;10.256;2022-08-05T04:39:30;25.20;62.20
12329;DHT22;6230;52.390;10.256;2022-08-05T04:41:56;25.20;62.20
12329;DHT22;6230;52.390;10.256;2022-08-05T04:44:21;25.20;62.10
12329;DHT22;6230;52.390;10.256;2022-08-05T04:46:47;25.20;62.10
12329;DHT22;6230;52.390;10.256;2022-08-05T04:49:13;25.20;62.10
12329;DHT22;6230;52.390;10.256;2022-08-05T04:51:38;25.30;62.30
12329;DHT22;6230;52.390;10.256;2022-08-05T04:54:04;25.30;62.40
12329;DHT22;6230;52.390;10.256;2022-08-05T04:56:29;25.30;62.30
12329;DHT22;6230;52.390;10.256;2022-08-05T04:58:55;25.30;62.20
12329;DHT22;6230;52.390;10.256;2022-08-05T05:01:21;25.20;62.20
12329;DHT22;6230;52.390;10.256;2022-08-05T05:03:46;25.20;62.30
12329;DHT22;6230;52.390;10.256;2022-08-05T05:06:12;25.10;62.40
12329;DHT22;6230;52.390;10.256;2022-08-05T05:08:38;25.00;62.50
12329;DHT22;6230;52.390;10.256;2022-08-05T05:11:04;25.00;62.70
12329;DHT22;6230;52.390;10.256;2022-08-05T05:13:30;25.00;62.80
12329;DHT22;6230;52.390;10.256;2022-08-05T05:15:57;25.00;63.00
12329;DHT22;6230;52.390;10.256;2022-08-05T05:18:22;25.00;63.00
12329;DHT22;6230;52.390;10.256;2022-08-05T05:20:48;25.00;63.10
12329;DHT22;6230;52.390;10.256;2022-08-05T05:23:15;25.00;62.90
12329;DHT22;6230;52.390;10.256;2022-08-05T05:25:44;25.00;63.00
12329;DHT22;6230;52.390;10.256;2022-08-05T05:28:10;25.00;63.00
12329;DHT22;6230;52.390;10.256;2022-08-05T05:30:39;25.00;63.10
12329;DHT22;6230;52.390;10.256;2022-08-05T05:33:06;25.00;63.10
12329;DHT22;6230;52.390;10.256;2022-08-05T05:35:32;25.00;63.20
12329;DHT22;6230;52.390;10.256;2022-08-05T05:37:59;25.00;63.20
12329;DHT22;6230;52.390;10.256;2022-08-05T05:40:26;25.00;63.20
12329;DHT22;6230;52.390;10.256;2022-08-05T05:42:53;25.00;63.10
12329;DHT22;6230;52.390;10.256;2022-08-05T05:45:19;25.00;63.20
12329;DHT22;6230;52.390;10.256;2022-08-05T05:47:45;25.00;63.20
12329;DHT22;6230;52.390;10.256;2022-08-05T05:50:13;25.10;64.10
12329;DHT22;6230;52.390;10.256;2022-08-05T05:52:39;25.10;63.30
12329;DHT22;6230;52.390;10.256;2022-08-05T05:55:06;25.10;63.10
12329;DHT22;6230;52.390;10.256;2022-08-05T05:57:36;25.10;63.00
12329;DHT22;6230;52.390;10.256;2022-08-05T06:00:07;25.10;63.00
12329;DHT22;6230;52.390;10.256;2022-08-05T06:02:33;25.10;63.10
12329;DHT22;6230;52.390;10.256;2022-08-05T06:04:59;25.10;63.10
12329;DHT22;6230;52.390;10.256;2022-08-05T06:07:25;25.00;63.20
12329;DHT22;6230;52.390;10.256;2022-08-05T06:09:50;25.10;63.60
12329;DHT22;6230;52.390;10.256;2022-08-05T06:12:16;25.10;63.70
12329;DHT22;6230;52.390;10.256;2022-08-05T06:14:42;25.20;63.50
12329;DHT22;6230;52.390;10.256;2022-08-05T06:17:11;25.20;64.30
12329;DHT22;6230;52.390;10.256;2022-08-05T06:19:37;25.20;63.40
12329;DHT22;6230;52.390;10.256;2022-08-05T06:22:03;25.30;63.50
12329;DHT22;6230;52.390;10.256;2022-08-05T06:24:29;25.30;63.40
12329;DHT22;6230;52.390;10.256;2022-08-05T06:26:54;25.30;63.30
12329;DHT22;6230;52.390;10.256;2022-08-05T06:29:20;25.30;63.30
12329;DHT22;6230;52.390;10.256;2022-08-05T06:31:46;25.40;63.30
12329;DHT22;6230;52.390;10.256;2022-08-05T06:34:11;25.40;63.00
12329;DHT22;6230;52.390;10.256;2022-08-05T06:36:37;25.40;63.00
12329;DHT22;6230;52.390;10.256;2022-08-05T06:39:02;25.20;62.80
12329;DHT22;6230;52.390;10.256;2022-08-05T06:41:28;25.10;63.00
12329;DHT22;6230;52.390;10.256;2022-08-05T06:43:54;25.00;63.20
12329;DHT22;6230;52.390;10.256;2022-08-05T06:46:19;24.80;63.30
12329;DHT22;6230;52.390;10.256;2022-08-05T06:48:45;24.80;63.60
12329;DHT22;6230;52.390;10.256;2022-08-05T06:51:16;24.70;63.80
12329;DHT22;6230;52.390;10.256;2022-08-05T06:53:42;24.70;63.80
12329;DHT22;6230;52.390;10.256;2022-08-05T06:56:08;24.70;63.90
12329;DHT22;6230;52.390;10.256;2022-08-05T06:58:34;24.60;64.00
12329;DHT22;6230;52.390;10.256;2022-08-05T07:01:01;24.60;64.10
12329;DHT22;6230;52.390;10.256;2022-08-05T07:03:27;24.60;64.30
12329;DHT22;6230;52.390;10.256;2022-08-05T07:05:53;24.60;64.30
12329;DHT22;6230;52.390;10.256;2022-08-05T07:08:19;24.60;64.40
12329;DHT22;6230;52.390;10.256;2022-08-05T07:10:48;24.60;64.40
12329;DHT22;6230;52.390;10.256;2022-08-05T07:13:13;24.70;65.30
12329;DHT22;6230;52.390;10.256;2022-08-05T07:15:57;24.70;64.60
12329;DHT22;6230;52.390;10.256;2022-08-05T07:18:42;24.70;64.50
12329;DHT22;6230;52.390;10.256;2022-08-05T07:21:07;24.70;64.30
12329;DHT22;6230;52.390;10.256;2022-08-05T07:23:33;24.70;64.30
12329;DHT22;6230;52.390;10.256;2022-08-05T07:25:59;24.70;64.50
12329;DHT22;6230;52.390;10.256;2022-08-05T07:28:25;24.70;64.50
12329;DHT22;6230;52.390;10.256;2022-08-05T07:30:51;24.70;64.50
12329;DHT22;6230;52.390;10.256;2022-08-05T07:33:16;24.60;64.50
12329;DHT22;6230;52.390;10.256;2022-08-05T07:35:46;24.60;64.60
12329;DHT22;6230;52.390;10.256;2022-08-05T07:38:12;24.50;64.80
12329;DHT22;6230;52.390;10.256;2022-08-05T07:40:38;24.50;64.90
12329;DHT22;6230;52.390;10.256;2022-08-05T07:43:03;24.50;65.00
12329;DHT22;6230;52.390;10.256;2022-08-05T07:45:29;24.50;65.20
12329;DHT22;6230;52.390;10.256;2022-08-05T07:47:54;24.50;65.30
12329;DHT22;6230;52.390;10.256;2022-08-05T07:50:20;24.60;65.40
12329;DHT22;6230;52.390;10.256;2022-08-05T07:52:46;24.60;65.30
12329;DHT22;6230;52.390;10.256;2022-08-05T07:55:11;24.70;65.30
12329;DHT22;6230;52.390;10.256;2022-08-05T07:57:37;24.80;65.20
12329;DHT22;6230;52.390;10.256;2022-08-05T08:00:04;24.80;65.00
12329;DHT22;6230;52.390;10.256;2022-08-05T08:02:30;24.80;65.00
12329;DHT22;6230;52.390;10.256;2022-08-05T08:04:56;24.90;65.20
12329;DHT22;6230;52.390;10.256;2022-08-05T08:07:22;24.90;65.30
12329;DHT22;6230;52.390;10.256;2022-08-05T08:09:48;24.90;66.10
12329;DHT22;6230;52.390;10.256;2022-08-05T08:12:14;24.90;65.30
12329;DHT22;6230;52.390;10.256;2022-08-05T08:14:41;24.80;65.30
12329;DHT22;6230;52.390;10.256;2022-08-05T08:17:07;24.80;65.20
12329;DHT22;6230;52.390;10.256;2022-08-05T08:19:38;24.70;65.10
12329;DHT22;6230;52.390;10.256;2022-08-05T08:22:05;24.60;65.20
12329;DHT22;6230;52.390;10.256;2022-08-05T08:24:31;24.60;65.40
12329;DHT22;6230;52.390;10.256;2022-08-05T08:26:57;24.60;65.30
12329;DHT22;6230;52.390;10.256;2022-08-05T08:29:23;24.60;65.30
12329;DHT22;6230;52.390;10.256;2022-08-05T08:31:49;24.60;65.30
12329;DHT22;6230;52.390;10.256;2022-08-05T08:34:19;24.60;65.30
12329;DHT22;6230;52.390;10.256;2022-08-05T08:36:45;24.60;65.50
12329;DHT22;6230;52.390;10.256;2022-08-05T08:39:11;24.60;65.50
12329;DHT22;6230;52.390;10.256;2022-08-05T08:41:40;24.60;65.40
12329;DHT22;6230;52.390;10.256;2022-08-05T08:44:07;24.60;65.40
12329;DHT22;6230;52.390;10.256;2022-08-05T08:46:33;24.60;65.40
12329;DHT22;6230;52.390;10.256;2022-08-05T08:49:01;24.60;65.30
12329;DHT22;6230;52.390;10.256;2022-08-05T08:51:31;24.60;65.40
12329;DHT22;6230;52.390;10.256;2022-08-05T08:53:57;24.60;65.40
12329;DHT22;6230;52.390;10.256;2022-08-05T08:56:23;24.60;65.40
12329;DHT22;6230;52.390;10.256;2022-08-05T08:58:49;24.60;65.50
12329;DHT22;6230;52.390;10.256;2022-08-05T09:01:16;24.70;65.40
12329;DHT22;6230;52.390;10.256;2022-08-05T09:03:50;24.80;65.10
12329;DHT22;6230;52.390;10.256;2022-08-05T09:06:16;24.80;65.10
12329;DHT22;6230;52.390;10.256;2022-08-05T09:08:42;24.90;65.20
12329;DHT22;6230;52.390;10.256;2022-08-05T09:11:08;25.00;65.10
12329;DHT22;6230;52.390;10.256;2022-08-05T09:13:35;25.10;64.90
12329;DHT22;6230;52.390;10.256;2022-08-05T09:16:01;25.10;64.70
12329;DHT22;6230;52.390;10.256;2022-08-05T09:18:27;25.10;64.70
12329;DHT22;6230;52.390;10.256;2022-08-05T09:20:53;25.20;64.40
12329;DHT22;6230;52.390;10.256;2022-08-05T09:23:19;25.20;64.20
12329;DHT22;6230;52.390;10.256;2022-08-05T09:25:50;25.20;64.10
12329;DHT22;6230;52.390;10.256;2022-08-05T09:28:21;25.20;64.00
12329;DHT22;6230;52.390;10.256;2022-08-05T09:30:56;25.10;64.00
12329;DHT22;6230;52.390;10.256;2022-08-05T09:33:23;25.10;63.90
12329;DHT22;6230;52.390;10.256;2022-08-05T09:36:03;25.10;63.90
12329;DHT22;6230;52.390;10.256;2022-08-05T09:38:30;25.20;64.00
12329;DHT22;6230;52.390;10.256;2022-08-05T09:41:07;25.20;64.00
12329;DHT22;6230;52.390;10.256;2022-08-05T09:43:38;25.20;63.90
12329;DHT22;6230;52.390;10.256;2022-08-05T09:46:05;25.20;63.80
12329;DHT22;6230;52.390;10.256;2022-08-05T09:48:36;25.10;63.80
12329;DHT22;6230;52.390;10.256;2022-08-05T09:51:08;25.10;64.60
12329;DHT22;6230;52.390;10.256;2022-08-05T09:53:52;25.10;63.90
12329;DHT22;6230;52.390;10.256;2022-08-05T09:56:32;25.00;63.90
12329;DHT22;6230;52.390;10.256;2022-08-05T09:59:10;25.00;63.70
12329;DHT22;6230;52.390;10.256;2022-08-05T10:01:39;24.90;63.70
12329;DHT22;6230;52.390;10.256;2022-08-05T10:04:14;24.80;63.70
12329;DHT22;6230;52.390;10.256;2022-08-05T10:06:53;24.70;63.90
12329;DHT22;6230;52.390;10.256;2022-08-05T10:09:19;24.70;64.00
12329;DHT22;6230;52.390;10.256;2022-08-05T10:11:49;24.70;63.80
12329;DHT22;6230;52.390;10.256;2022-08-05T10:14:25;24.60;63.70
12329;DHT22;6230;52.390;10.256;2022-08-05T10:16:52;24.60;63.80
12329;DHT22;6230;52.390;10.256;2022-08-05T10:19:24;24.60;63.80
12329;DHT22;6230;52.390;10.256;2022-08-05T10:21:50;24.60;63.80
12329;DHT22;6230;52.390;10.256;2022-08-05T10:24:17;24.70;63.90
12329;DHT22;6230;52.390;10.256;2022-08-05T10:26:45;24.70;63.80
12329;DHT22;6230;52.390;10.256;2022-08-05T10:29:11;24.70;63.80
12329;DHT22;6230;52.390;10.256;2022-08-05T10:31:37;24.70;63.60
12329;DHT22;6230;52.390;10.256;2022-08-05T10:34:07;24.70;63.60
12329;DHT22;6230;52.390;10.256;2022-08-05T10:36:35;24.70;63.70
12329;DHT22;6230;52.390;10.256;2022-08-05T10:39:23;24.70;63.70
12329;DHT22;6230;52.390;10.256;2022-08-05T10:41:59;24.70;63.80
12329;DHT22;6230;52.390;10.256;2022-08-05T10:44:27;24.70;63.60
12329;DHT22;6230;52.390;10.256;2022-08-05T10:46:55;24.60;64.30
12329;DHT22;6230;52.390;10.256;2022-08-05T10:49:22;24.60;63.50
12329;DHT22;6230;52.390;10.256;2022-08-05T10:51:50;24.60;63.50
12329;DHT22;6230;52.390;10.256;2022-08-05T10:54:22;24.60;63.60
12329;DHT22;6230;52.390;10.256;2022-08-05T10:56:53;24.60;63.50
12329;DHT22;6230;52.390;10.256;2022-08-05T10:59:30;24.70;63.60
12329;DHT22;6230;52.390;10.256;2022-08-05T11:02:09;24.80;63.50
12329;DHT22;6230;52.390;10.256;2022-08-05T11:04:53;24.80;63.40
12329;DHT22;6230;52.390;10.256;2022-08-05T11:07:19;24.90;63.50
12329;DHT22;6230;52.390;10.256;2022-08-05T11:09:53;24.90;63.40
12329;DHT22;6230;52.390;10.256;2022-08-05T11:17:43;25.10;62.80
12329;DHT22;6230;52.390;10.256;2022-08-05T11:20:32;25.10;62.70
12329;DHT22;6230;52.390;10.256;2022-08-05T11:22:59;25.10;62.40
12329;DHT22;6230;52.390;10.256;2022-08-05T11:25:36;25.00;62.30
12329;DHT22;6230;52.390;10.256;2022-08-05T11:33:37;24.70;62.30
12329;DHT22;6230;52.390;10.256;2022-08-05T11:36:08;24.60;62.10
12329;DHT22;6230;52.390;10.256;2022-08-05T11:41:41;24.40;61.80
12329;DHT22;6230;52.390;10.256;2022-08-05T11:44:12;24.40;61.80
12329;DHT22;6230;52.390;10.256;2022-08-05T11:46:41;24.30;61.70
12329;DHT22;6230;52.390;10.256;2022-08-05T11:49:10;24.20;61.40
12329;DHT22;6230;52.390;10.256;2022-08-05T11:51:49;24.10;61.30
12329;DHT22;6230;52.390;10.256;2022-08-05T11:54:25;24.00;61.10
12329;DHT22;6230;52.390;10.256;2022-08-05T11:56:56;23.90;61.10
12329;DHT22;6230;52.390;10.256;2022-08-05T11:59:25;23.80;61.30
12329;DHT22;6230;52.390;10.256;2022-08-05T12:01:59;23.80;61.40
12329;DHT22;6230;52.390;10.256;2022-08-05T12:04:28;23.80;61.40
12329;DHT22;6230;52.390;10.256;2022-08-05T12:06:54;23.70;61.40
12329;DHT22;6230;52.390;10.256;2022-08-05T12:09:24;23.70;61.30
12329;DHT22;6230;52.390;10.256;2022-08-05T12:11:52;23.70;61.30
12329;DHT22;6230;52.390;10.256;2022-08-05T12:14:18;23.70;61.10
12329;DHT22;6230;52.390;10.256;2022-08-05T12:16:44;23.70;61.20
12329;DHT22;6230;52.390;10.256;2022-08-05T12:19:12;23.70;61.40
12329;DHT22;6230;52.390;10.256;2022-08-05T12:21:47;23.70;61.20
12329;DHT22;6230;52.390;10.256;2022-08-05T12:24:15;23.70;61.20
12329;DHT22;6230;52.390;10.256;2022-08-05T12:26:43;23.70;61.20
12329;DHT22;6230;52.390;10.256;2022-08-05T12:29:21;23.70;61.20
12329;DHT22;6230;52.390;10.256;2022-08-05T12:31:55;23.70;61.30
12329;DHT22;6230;52.390;10.256;2022-08-05T12:34:30;23.70;61.80
12329;DHT22;6230;52.390;10.256;2022-08-05T12:37:00;23.70;62.00
12329;DHT22;6230;52.390;10.256;2022-08-05T12:39:27;23.70;62.20
12329;DHT22;6230;52.390;10.256;2022-08-05T12:41:59;23.70;62.40
12329;DHT22;6230;52.390;10.256;2022-08-05T12:44:25;23.70;62.80
12329;DHT22;6230;52.390;10.256;2022-08-05T12:46:52;23.60;62.80
12329;DHT22;6230;52.390;10.256;2022-08-05T12:49:19;23.60;62.90
12329;DHT22;6230;52.390;10.256;2022-08-05T12:54:22;23.60;63.20
12329;DHT22;6230;52.390;10.256;2022-08-05T12:56:53;23.50;63.20
12329;DHT22;6230;52.390;10.256;2022-08-05T12:59:27;23.50;63.00
12329;DHT22;6230;52.390;10.256;2022-08-05T13:04:35;23.40;62.80
12329;DHT22;6230;52.390;10.256;2022-08-05T13:07:03;23.40;63.10
12329;DHT22;6230;52.390;10.256;2022-08-05T13:09:30;23.40;63.20
12329;DHT22;6230;52.390;10.256;2022-08-05T13:12:22;23.40;63.30
12329;DHT22;6230;52.390;10.256;2022-08-05T13:14:56;23.40;63.30
12329;DHT22;6230;52.390;10.256;2022-08-05T13:17:27;23.40;63.40
12329;DHT22;6230;52.390;10.256;2022-08-05T13:22:28;23.50;63.60
12329;DHT22;6230;52.390;10.256;2022-08-05T13:24:54;23.50;63.60
12329;DHT22;6230;52.390;10.256;2022-08-05T13:27:26;23.60;63.80
12329;DHT22;6230;52.390;10.256;2022-08-05T13:29:52;23.70;63.90
12329;DHT22;6230;52.390;10.256;2022-08-05T13:32:18;23.80;64.00
12329;DHT22;6230;52.390;10.256;2022-08-05T13:34:45;23.80;63.50
12329;DHT22;6230;52.390;10.256;2022-08-05T13:37:11;23.90;63.50
12329;DHT22;6230;52.390;10.256;2022-08-05T13:39:37;24.00;63.40
12329;DHT22;6230;52.390;10.256;2022-08-05T13:42:02;24.10;63.20
12329;DHT22;6230;52.390;10.256;2022-08-05T13:44:28;24.20;62.90
12329;DHT22;6230;52.390;10.256;2022-08-05T13:46:54;24.20;62.50
12329;DHT22;6230;52.390;10.256;2022-08-05T13:49:19;24.30;62.40
12329;DHT22;6230;52.390;10.256;2022-08-05T13:51:45;24.30;62.10
12329;DHT22;6230;52.390;10.256;2022-08-05T13:54:11;24.40;61.90
12329;DHT22;6230;52.390;10.256;2022-08-05T13:56:36;24.50;61.80
12329;DHT22;6230;52.390;10.256;2022-08-05T13:59:02;24.50;61.40
12329;DHT22;6230;52.390;10.256;2022-08-05T14:01:28;24.60;60.90
12329;DHT22;6230;52.390;10.256;2022-08-05T14:03:53;24.60;60.50
12329;DHT22;6230;52.390;10.256;2022-08-05T14:06:37;24.70;60.20
12329;DHT22;6230;52.390;10.256;2022-08-05T14:09:03;24.70;59.90
12329;DHT22;6230;52.390;10.256;2022-08-05T14:11:28;24.70;59.60
12329;DHT22;6230;52.390;10.256;2022-08-05T14:13:54;24.70;59.60
12329;DHT22;6230;52.390;10.256;2022-08-05T14:16:20;24.70;59.40
12329;DHT22;6230;52.390;10.256;2022-08-05T14:18:46;24.70;59.40
12329;DHT22;6230;52.390;10.256;2022-08-05T14:21:11;24.70;59.20
12329;DHT22;6230;52.390;10.256;2022-08-05T14:23:37;24.60;58.90
12329;DHT22;6230;52.390;10.256;2022-08-05T14:26:02;24.50;58.90
12329;DHT22;6230;52.390;10.256;2022-08-05T14:28:28;24.50;58.70
12329;DHT22;6230;52.390;10.256;2022-08-05T14:30:58;24.50;58.60
12329;DHT22;6230;52.390;10.256;2022-08-05T14:33:24;24.40;58.60
12329;DHT22;6230;52.390;10.256;2022-08-05T14:35:50;24.40;58.70
12329;DHT22;6230;52.390;10.256;2022-08-05T14:38:15;24.40;58.70
12329;DHT22;6230;52.390;10.256;2022-08-05T14:40:41;24.40;58.70
12329;DHT22;6230;52.390;10.256;2022-08-05T14:43:06;24.40;58.70
12329;DHT22;6230;52.390;10.256;2022-08-05T14:45:32;24.40;58.80
12329;DHT22;6230;52.390;10.256;2022-08-05T14:47:58;24.40;58.70
12329;DHT22;6230;52.390;10.256;2022-08-05T14:50:23;24.50;58.70
12329;DHT22;6230;52.390;10.256;2022-08-05T14:52:49;24.50;58.60
12329;DHT22;6230;52.390;10.256;2022-08-05T14:55:14;24.50;58.50
12329;DHT22;6230;52.390;10.256;2022-08-05T14:57:40;24.60;58.50
12329;DHT22;6230;52.390;10.256;2022-08-05T15:00:06;24.60;58.40
12329;DHT22;6230;52.390;10.256;2022-08-05T15:02:32;24.60;58.20
12329;DHT22;6230;52.390;10.256;2022-08-05T15:04:57;24.50;58.00
12329;DHT22;6230;52.390;10.256;2022-08-05T15:07:23;24.50;57.90
12329;DHT22;6230;52.390;10.256;2022-08-05T15:09:48;24.50;57.90
12329;DHT22;6230;52.390;10.256;2022-08-05T15:12:14;24.50;58.00
12329;DHT22;6230;52.390;10.256;2022-08-05T15:14:39;24.50;57.80
12329;DHT22;6230;52.390;10.256;2022-08-05T15:17:05;24.50;57.60
12329;DHT22;6230;52.390;10.256;2022-08-05T15:19:31;24.50;57.60
12329;DHT22;6230;52.390;10.256;2022-08-05T15:21:57;24.60;57.60
12329;DHT22;6230;52.390;10.256;2022-08-05T15:24:24;24.50;57.50
12329;DHT22;6230;52.390;10.256;2022-08-05T15:26:49;24.50;57.60
12329;DHT22;6230;52.390;10.256;2022-08-05T15:29:15;24.50;57.70
12329;DHT22;6230;52.390;10.256;2022-08-05T15:31:41;24.60;57.80
12329;DHT22;6230;52.390;10.256;2022-08-05T15:34:06;24.60;57.80
12329;DHT22;6230;52.390;10.256;2022-08-05T15:36:32;24.60;57.80
12329;DHT22;6230;52.390;10.256;2022-08-05T15:38:57;24.70;57.90
12329;DHT22;6230;52.390;10.256;2022-08-05T15:41:23;24.70;58.00
12329;DHT22;6230;52.390;10.256;2022-08-05T15:43:51;24.80;57.80
12329;DHT22;6230;52.390;10.256;2022-08-05T15:46:18;24.80;57.60
12329;DHT22;6230;52.390;10.256;2022-08-05T15:48:44;24.80;57.60
12329;DHT22;6230;52.390;10.256;2022-08-05T15:51:10;24.80;57.60
12329;DHT22;6230;52.390;10.256;2022-08-05T15:53:36;24.80;57.50
12329;DHT22;6230;52.390;10.256;2022-08-05T15:56:03;24.80;57.50
12329;DHT22;6230;52.390;10.256;2022-08-05T15:58:29;24.70;57.40
12329;DHT22;6230;52.390;10.256;2022-08-05T16:00:54;24.70;57.30
12329;DHT22;6230;52.390;10.256;2022-08-05T16:03:20;24.70;57.20
12329;DHT22;6230;52.390;10.256;2022-08-05T16:05:46;24.70;57.10